sensor_id;sensor_type;location;lat;lon;timestamp;P1;durP1;ratioP1;P2;durP2;ratioP2
35803;SDS011;21924;51.934;7.414;2023-04-01T00:01:10;10.75;;;3.65;;
35803;SDS011;21924;51.934;7.414;2023-04-01T00:03:59;8.02;;;3.63;;
35803;SDS011;21924;51.934;7.414;2023-04-01T00:06:45;5.55;;;3.55;;
35803;SDS011;21924;51.934;7.414;2023-04-01T00:09:31;7.80;;;3.67;;
35803;SDS011;21924;51.934;7.414;2023-04-01T00:12:15;7.28;;;3.85;;
35803;SDS011;21924;51.934;7.414;2023-04-01T00:14:59;5.10;;;3.30;;
35803;SDS011;21924;51.934;7.414;2023-04-01T00:17:44;8.52;;;3.38;;
35803;SDS011;21924;51.934;7.414;2023-04-01T00:20:28;13.02;;;4.35;;
35803;SDS011;21924;51.934;7.414;2023-04-01T00:23:13;8.68;;;3.92;;
35803;SDS011;21924;51.934;7.414;2023-04-01T00:26:02;9.97;;;3.83;;
35803;SDS011;21924;51.934;7.414;2023-04-01T00:28:47;6.45;;;3.80;;
35803;SDS011;21924;51.934;7.414;2023-04-01T00:31:31;10.63;;;4.13;;
35803;SDS011;21924;51.934;7.414;2023-04-01T00:34:15;11.38;;;4.20;;
35803;SDS011;21924;51.934;7.414;2023-04-01T00:37:00;12.07;;;3.90;;
35803;SDS011;21924;51.934;7.414;2023-04-01T00:39:44;6.30;;;3.55;;
35803;SDS011;21924;51.934;7.414;2023-04-01T00:42:29;8.35;;;3.80;;
35803;SDS011;21924;51.934;7.414;2023-04-01T00:48:20;8.15;;;3.72;;
35803;SDS011;21924;51.934;7.414;2023-04-01T00:51:14;8.20;;;4.05;;
35803;SDS011;21924;51.934;7.414;2023-04-01T00:54:02;7.50;;;4.35;;
35803;SDS011;21924;51.934;7.414;2023-04-01T00:59:44;16.10;;;4.78;;
35803;SDS011;21924;51.934;7.414;2023-04-01T01:02:31;8.07;;;4.50;;
35803;SDS011;21924;51.934;7.414;2023-04-01T01:05:16;11.82;;;4.35;;
35803;SDS011;21924;51.934;7.414;2023-04-01T01:08:09;7.57;;;4.07;;
35803;SDS011;21924;51.934;7.414;2023-04-01T01:11:06;6.72;;;4.00;;
35803;SDS011;21924;51.934;7.414;2023-04-01T01:14:01;9.13;;;4.45;;
35803;SDS011;21924;51.934;7.414;2023-04-01T01:16:59;7.78;;;4.65;;
35803;SDS011;21924;51.934;7.414;2023-04-01T01:23:15;8.32;;;4.90;;
35803;SDS011;21924;51.934;7.414;2023-04-01T01:29:49;8.93;;;5.68;;
35803;SDS011;21924;51.934;7.414;2023-04-01T01:35:51;9.48;;;6.07;;
35803;SDS011;21924;51.934;7.414;2023-04-01T01:38:39;11.77;;;5.68;;
35803;SDS011;21924;51.934;7.414;2023-04-01T01:41:23;11.55;;;6.43;;
35803;SDS011;21924;51.934;7.414;2023-04-01T01:44:11;9.52;;;6.18;;
35803;SDS011;21924;51.934;7.414;2023-04-01T01:46:57;12.65;;;6.60;;
35803;SDS011;21924;51.934;7.414;2023-04-01T01:49:43;16.98;;;6.65;;
35803;SDS011;21924;51.934;7.414;2023-04-01T01:52:29;8.55;;;6.00;;
35803;SDS011;21924;51.934;7.414;2023-04-01T01:55:24;12.40;;;6.85;;
35803;SDS011;21924;51.934;7.414;2023-04-01T01:58:17;11.30;;;5.70;;
35803;SDS011;21924;51.934;7.414;2023-04-01T02:01:05;9.77;;;6.68;;
35803;SDS011;21924;51.934;7.414;2023-04-01T02:03:53;9.68;;;6.47;;
35803;SDS011;21924;51.934;7.414;2023-04-01T02:06:41;11.63;;;6.43;;
35803;SDS011;21924;51.934;7.414;2023-04-01T02:09:31;8.20;;;5.45;;
35803;SDS011;21924;51.934;7.414;2023-04-01T02:12:17;7.97;;;5.53;;
35803;SDS011;21924;51.934;7.414;2023-04-01T02:15:08;12.25;;;5.88;;
35803;SDS011;21924;51.934;7.414;2023-04-01T02:17:54;8.50;;;5.30;;
35803;SDS011;21924;51.934;7.414;2023-04-01T02:20:40;11.93;;;5.32;;
35803;SDS011;21924;51.934;7.414;2023-04-01T02:23:26;7.03;;;5.35;;
35803;SDS011;21924;51.934;7.414;2023-04-01T02:26:12;8.25;;;5.80;;
35803;SDS011;21924;51.934;7.414;2023-04-01T02:28:58;11.57;;;4.60;;
35803;SDS011;21924;51.934;7.414;2023-04-01T02:31:44;8.02;;;4.93;;
35803;SDS011;21924;51.934;7.414;2023-04-01T02:34:29;5.10;;;4.30;;
35803;SDS011;21924;51.934;7.414;2023-04-01T02:37:13;7.18;;;4.63;;
35803;SDS011;21924;51.934;7.414;2023-04-01T02:39:59;5.82;;;4.15;;
35803;SDS011;21924;51.934;7.414;2023-04-01T02:42:45;7.30;;;4.53;;
35803;SDS011;21924;51.934;7.414;2023-04-01T02:45:30;7.82;;;4.88;;
35803;SDS011;21924;51.934;7.414;2023-04-01T02:48:14;5.82;;;4.20;;
35803;SDS011;21924;51.934;7.414;2023-04-01T02:50:58;5.78;;;4.15;;
35803;SDS011;21924;51.934;7.414;2023-04-01T02:53:42;6.15;;;4.18;;
35803;SDS011;21924;51.934;7.414;2023-04-01T02:56:27;6.13;;;3.95;;
35803;SDS011;21924;51.934;7.414;2023-04-01T02:59:11;5.15;;;3.78;;
35803;SDS011;21924;51.934;7.414;2023-04-01T03:01:55;5.15;;;4.03;;
35803;SDS011;21924;51.934;7.414;2023-04-01T03:04:40;6.90;;;4.88;;
35803;SDS011;21924;51.934;7.414;2023-04-01T03:07:24;6.43;;;4.53;;
35803;SDS011;21924;51.934;7.414;2023-04-01T03:10:08;6.55;;;4.47;;
35803;SDS011;21924;51.934;7.414;2023-04-01T03:12:53;8.35;;;4.88;;
35803;SDS011;21924;51.934;7.414;2023-04-01T03:15:37;6.10;;;5.05;;
35803;SDS011;21924;51.934;7.414;2023-04-01T03:18:22;8.18;;;5.18;;
35803;SDS011;21924;51.934;7.414;2023-04-01T03:21:13;6.63;;;4.82;;
35803;SDS011;21924;51.934;7.414;2023-04-01T03:24:01;8.00;;;5.50;;
35803;SDS011;21924;51.934;7.414;2023-04-01T03:26:46;7.53;;;5.60;;
35803;SDS011;21924;51.934;7.414;2023-04-01T03:29:30;8.25;;;6.10;;
35803;SDS011;21924;51.934;7.414;2023-04-01T03:32:14;9.32;;;6.63;;
35803;SDS011;21924;51.934;7.414;2023-04-01T03:34:58;9.43;;;6.55;;
35803;SDS011;21924;51.934;7.414;2023-04-01T03:37:43;9.82;;;6.70;;
35803;SDS011;21924;51.934;7.414;2023-04-01T03:40:27;11.18;;;6.93;;
35803;SDS011;21924;51.934;7.414;2023-04-01T03:43:11;10.20;;;6.88;;
35803;SDS011;21924;51.934;7.414;2023-04-01T03:45:56;12.30;;;7.97;;
35803;SDS011;21924;51.934;7.414;2023-04-01T03:48:41;12.02;;;7.75;;
35803;SDS011;21924;51.934;7.414;2023-04-01T03:51:25;13.07;;;8.57;;
35803;SDS011;21924;51.934;7.414;2023-04-01T03:54:10;15.35;;;8.23;;
35803;SDS011;21924;51.934;7.414;2023-04-01T03:56:54;14.27;;;8.55;;
35803;SDS011;21924;51.934;7.414;2023-04-01T03:59:38;13.60;;;9.30;;
35803;SDS011;21924;51.934;7.414;2023-04-01T04:02:23;16.20;;;9.05;;
35803;SDS011;21924;51.934;7.414;2023-04-01T04:05:07;13.48;;;8.57;;
35803;SDS011;21924;51.934;7.414;2023-04-01T04:07:52;12.82;;;8.25;;
35803;SDS011;21924;51.934;7.414;2023-04-01T04:10:36;13.02;;;7.95;;
35803;SDS011;21924;51.934;7.414;2023-04-01T04:13:20;11.77;;;7.13;;
35803;SDS011;21924;51.934;7.414;2023-04-01T04:16:05;11.98;;;7.57;;
35803;SDS011;21924;51.934;7.414;2023-04-01T04:18:49;11.40;;;7.80;;
35803;SDS011;21924;51.934;7.414;2023-04-01T04:21:34;15.07;;;8.43;;
35803;SDS011;21924;51.934;7.414;2023-04-01T04:24:18;12.55;;;8.68;;
35803;SDS011;21924;51.934;7.414;2023-04-01T04:27:03;17.60;;;9.48;;
35803;SDS011;21924;51.934;7.414;2023-04-01T04:29:47;17.40;;;8.80;;
35803;SDS011;21924;51.934;7.414;2023-04-01T04:32:32;11.80;;;8.43;;
35803;SDS011;21924;51.934;7.414;2023-04-01T04:35:16;15.15;;;8.77;;
35803;SDS011;21924;51.934;7.414;2023-04-01T04:38:00;15.20;;;8.52;;
35803;SDS011;21924;51.934;7.414;2023-04-01T04:40:44;14.48;;;8.50;;
35803;SDS011;21924;51.934;7.414;2023-04-01T04:43:28;17.30;;;9.05;;
35803;SDS011;21924;51.934;7.414;2023-04-01T04:46:13;20.40;;;9.45;;
35803;SDS011;21924;51.934;7.414;2023-04-01T04:48:57;16.83;;;9.88;;
35803;SDS011;21924;51.934;7.414;2023-04-01T04:51:41;15.57;;;8.73;;
35803;SDS011;21924;51.934;7.414;2023-04-01T04:54:25;19.77;;;9.52;;
35803;SDS011;21924;51.934;7.414;2023-04-01T04:57:10;16.83;;;9.32;;
35803;SDS011;21924;51.934;7.414;2023-04-01T04:59:54;15.77;;;9.20;;
35803;SDS011;21924;51.934;7.414;2023-04-01T05:02:39;16.88;;;9.25;;
35803;SDS011;21924;51.934;7.414;2023-04-01T05:05:23;14.73;;;8.77;;
35803;SDS011;21924;51.934;7.414;2023-04-01T05:08:07;16.65;;;8.93;;
35803;SDS011;21924;51.934;7.414;2023-04-01T05:10:51;18.95;;;9.23;;
35803;SDS011;21924;51.934;7.414;2023-04-01T05:13:36;17.40;;;10.00;;
35803;SDS011;21924;51.934;7.414;2023-04-01T05:16:20;17.30;;;9.68;;
35803;SDS011;21924;51.934;7.414;2023-04-01T05:19:05;12.68;;;8.55;;
35803;SDS011;21924;51.934;7.414;2023-04-01T05:21:49;18.25;;;9.38;;
35803;SDS011;21924;51.934;7.414;2023-04-01T05:24:33;14.82;;;8.70;;
35803;SDS011;21924;51.934;7.414;2023-04-01T05:27:18;16.00;;;9.18;;
35803;SDS011;21924;51.934;7.414;2023-04-01T05:30:02;20.88;;;9.32;;
35803;SDS011;21924;51.934;7.414;2023-04-01T05:32:47;15.48;;;8.57;;
35803;SDS011;21924;51.934;7.414;2023-04-01T05:35:31;25.25;;;9.00;;
35803;SDS011;21924;51.934;7.414;2023-04-01T05:38:15;16.10;;;8.80;;
35803;SDS011;21924;51.934;7.414;2023-04-01T05:41:01;14.48;;;8.10;;
35803;SDS011;21924;51.934;7.414;2023-04-01T05:43:46;18.85;;;8.73;;
35803;SDS011;21924;51.934;7.414;2023-04-01T05:46:30;15.82;;;9.05;;
35803;SDS011;21924;51.934;7.414;2023-04-01T05:49:15;18.17;;;9.00;;
35803;SDS011;21924;51.934;7.414;2023-04-01T05:52:00;17.10;;;10.27;;
35803;SDS011;21924;51.934;7.414;2023-04-01T05:54:44;20.30;;;10.18;;
35803;SDS011;21924;51.934;7.414;2023-04-01T05:57:28;14.82;;;8.70;;
35803;SDS011;21924;51.934;7.414;2023-04-01T06:00:12;18.20;;;8.77;;
35803;SDS011;21924;51.934;7.414;2023-04-01T06:02:58;19.25;;;9.55;;
35803;SDS011;21924;51.934;7.414;2023-04-01T06:05:43;20.25;;;10.52;;
35803;SDS011;21924;51.934;7.414;2023-04-01T06:08:30;24.75;;;10.80;;
35803;SDS011;21924;51.934;7.414;2023-04-01T06:23:19;17.33;;;9.65;;
35803;SDS011;21924;51.934;7.414;2023-04-01T06:26:24;18.35;;;9.50;;
35803;SDS011;21924;51.934;7.414;2023-04-01T06:38:34;14.70;;;8.35;;
35803;SDS011;21924;51.934;7.414;2023-04-01T06:50:53;13.30;;;8.07;;
35803;SDS011;21924;51.934;7.414;2023-04-01T06:53:56;16.40;;;8.98;;
35803;SDS011;21924;51.934;7.414;2023-04-01T06:56:49;11.73;;;7.78;;
35803;SDS011;21924;51.934;7.414;2023-04-01T06:59:41;18.15;;;9.27;;
35803;SDS011;21924;51.934;7.414;2023-04-01T07:02:28;18.42;;;8.80;;
35803;SDS011;21924;51.934;7.414;2023-04-01T07:05:22;13.50;;;8.30;;
35803;SDS011;21924;51.934;7.414;2023-04-01T07:08:09;15.15;;;8.75;;
35803;SDS011;21924;51.934;7.414;2023-04-01T07:11:01;14.00;;;8.57;;
35803;SDS011;21924;51.934;7.414;2023-04-01T07:13:52;14.77;;;7.65;;
35803;SDS011;21924;51.934;7.414;2023-04-01T07:16:43;15.05;;;8.57;;
35803;SDS011;21924;51.934;7.414;2023-04-01T07:22:45;12.82;;;7.70;;
35803;SDS011;21924;51.934;7.414;2023-04-01T07:25:39;14.50;;;8.10;;
35803;SDS011;21924;51.934;7.414;2023-04-01T07:28:30;15.63;;;8.65;;
35803;SDS011;21924;51.934;7.414;2023-04-01T07:31:18;11.82;;;7.13;;
35803;SDS011;21924;51.934;7.414;2023-04-01T07:37:04;11.63;;;7.30;;
35803;SDS011;21924;51.934;7.414;2023-04-01T07:46:29;12.90;;;7.22;;
35803;SDS011;21924;51.934;7.414;2023-04-01T07:56:00;10.27;;;6.95;;
35803;SDS011;21924;51.934;7.414;2023-04-01T08:04:55;13.30;;;6.65;;
35803;SDS011;21924;51.934;7.414;2023-04-01T08:14:03;9.02;;;5.40;;
35803;SDS011;21924;51.934;7.414;2023-04-01T08:22:49;9.57;;;5.88;;
35803;SDS011;21924;51.934;7.414;2023-04-01T08:25:37;7.57;;;5.53;;
35803;SDS011;21924;51.934;7.414;2023-04-01T08:28:29;9.57;;;5.00;;
35803;SDS011;21924;51.934;7.414;2023-04-01T08:34:34;6.95;;;4.90;;
35803;SDS011;21924;51.934;7.414;2023-04-01T08:37:21;7.80;;;5.32;;
35803;SDS011;21924;51.934;7.414;2023-04-01T08:40:22;5.75;;;4.50;;
35803;SDS011;21924;51.934;7.414;2023-04-01T08:43:50;7.90;;;5.03;;
35803;SDS011;21924;51.934;7.414;2023-04-01T08:50:01;8.45;;;4.55;;
35803;SDS011;21924;51.934;7.414;2023-04-01T09:30:00;5.00;;;3.83;;
35803;SDS011;21924;51.934;7.414;2023-04-01T09:35:46;12.57;;;5.00;;
35803;SDS011;21924;51.934;7.414;2023-04-01T09:41:31;5.50;;;4.05;;
35803;SDS011;21924;51.934;7.414;2023-04-01T09:44:54;6.30;;;4.18;;
35803;SDS011;21924;51.934;7.414;2023-04-01T09:54:36;9.25;;;3.88;;
35803;SDS011;21924;51.934;7.414;2023-04-01T10:03:29;5.07;;;4.20;;
35803;SDS011;21924;51.934;7.414;2023-04-01T10:30:56;3.22;;;2.25;;
35803;SDS011;21924;51.934;7.414;2023-04-01T10:36:58;2.33;;;2.13;;
35803;SDS011;21924;51.934;7.414;2023-04-01T10:40:00;2.67;;;2.22;;
35803;SDS011;21924;51.934;7.414;2023-04-01T10:43:12;1.83;;;1.67;;
35803;SDS011;21924;51.934;7.414;2023-04-01T10:56:00;3.20;;;1.58;;
35803;SDS011;21924;51.934;7.414;2023-04-01T11:04:49;2.70;;;1.83;;
35803;SDS011;21924;51.934;7.414;2023-04-01T11:08:07;1.33;;;1.23;;
35803;SDS011;21924;51.934;7.414;2023-04-01T11:34:13;1.83;;;1.67;;
35803;SDS011;21924;51.934;7.414;2023-04-01T11:37:37;3.58;;;1.80;;
35803;SDS011;21924;51.934;7.414;2023-04-01T11:43:45;10.13;;;6.10;;
35803;SDS011;21924;51.934;7.414;2023-04-01T12:05:22;14.48;;;5.85;;
35803;SDS011;21924;51.934;7.414;2023-04-01T12:11:08;1.90;;;1.40;;
35803;SDS011;21924;51.934;7.414;2023-04-01T12:14:30;1.80;;;1.70;;
35803;SDS011;21924;51.934;7.414;2023-04-01T12:20:28;1.60;;;1.50;;
35803;SDS011;21924;51.934;7.414;2023-04-01T12:23:21;3.05;;;2.30;;
35803;SDS011;21924;51.934;7.414;2023-04-01T12:32:34;2.97;;;1.65;;
35803;SDS011;21924;51.934;7.414;2023-04-01T12:38:31;1.45;;;1.35;;
35803;SDS011;21924;51.934;7.414;2023-04-01T12:44:44;1.30;;;1.20;;
35803;SDS011;21924;51.934;7.414;2023-04-01T12:47:47;5.22;;;1.30;;
35803;SDS011;21924;51.934;7.414;2023-04-01T13:20:06;1.27;;;1.00;;
35803;SDS011;21924;51.934;7.414;2023-04-01T13:23:11;4.18;;;1.60;;
35803;SDS011;21924;51.934;7.414;2023-04-01T13:26:42;1.10;;;1.00;;
35803;SDS011;21924;51.934;7.414;2023-04-01T13:32:43;1.33;;;1.23;;
35803;SDS011;21924;51.934;7.414;2023-04-01T13:35:38;2.03;;;1.40;;
35803;SDS011;21924;51.934;7.414;2023-04-01T13:38:48;3.05;;;1.98;;
35803;SDS011;21924;51.934;7.414;2023-04-01T13:56:49;4.50;;;2.40;;
35803;SDS011;21924;51.934;7.414;2023-04-01T14:02:53;1.90;;;1.80;;
35803;SDS011;21924;51.934;7.414;2023-04-01T14:09:04;5.30;;;2.53;;
35803;SDS011;21924;51.934;7.414;2023-04-01T14:15:42;4.45;;;2.67;;
35803;SDS011;21924;51.934;7.414;2023-04-01T14:31:20;5.05;;;3.63;;
35803;SDS011;21924;51.934;7.414;2023-04-01T14:37:01;5.25;;;3.55;;
35803;SDS011;21924;51.934;7.414;2023-04-01T14:40:20;8.00;;;5.63;;
35803;SDS011;21924;51.934;7.414;2023-04-01T14:43:28;3.42;;;2.78;;
35803;SDS011;21924;51.934;7.414;2023-04-01T14:52:27;3.95;;;2.80;;
35803;SDS011;21924;51.934;7.414;2023-04-01T14:55:20;3.00;;;2.67;;
35803;SDS011;21924;51.934;7.414;2023-04-01T14:58:18;4.20;;;3.05;;
35803;SDS011;21924;51.934;7.414;2023-04-01T15:04:06;6.60;;;2.95;;
35803;SDS011;21924;51.934;7.414;2023-04-01T15:07:11;3.83;;;2.78;;
35803;SDS011;21924;51.934;7.414;2023-04-01T15:19:31;4.68;;;3.15;;
35803;SDS011;21924;51.934;7.414;2023-04-01T15:22:43;5.32;;;3.95;;
35803;SDS011;21924;51.934;7.414;2023-04-01T15:28:51;11.82;;;7.45;;
35803;SDS011;21924;51.934;7.414;2023-04-01T15:31:50;5.65;;;4.25;;
35803;SDS011;21924;51.934;7.414;2023-04-01T15:34:50;6.43;;;4.68;;
35803;SDS011;21924;51.934;7.414;2023-04-01T15:37:50;7.78;;;5.13;;
35803;SDS011;21924;51.934;7.414;2023-04-01T15:43:45;20.70;;;9.13;;
35803;SDS011;21924;51.934;7.414;2023-04-01T15:46:48;24.75;;;10.48;;
35803;SDS011;21924;51.934;7.414;2023-04-01T15:49:43;27.38;;;10.25;;
35803;SDS011;21924;51.934;7.414;2023-04-01T15:59:20;24.10;;;10.70;;
35803;SDS011;21924;51.934;7.414;2023-04-01T16:02:30;34.67;;;13.25;;
35803;SDS011;21924;51.934;7.414;2023-04-01T16:05:32;23.10;;;10.00;;
35803;SDS011;21924;51.934;7.414;2023-04-01T16:17:57;46.30;;;13.40;;
35803;SDS011;21924;51.934;7.414;2023-04-01T16:24:02;66.05;;;16.73;;
35803;SDS011;21924;51.934;7.414;2023-04-01T16:27:35;59.67;;;20.48;;
35803;SDS011;21924;51.934;7.414;2023-04-01T16:30:44;15.25;;;7.93;;
35803;SDS011;21924;51.934;7.414;2023-04-01T16:33:49;7.40;;;5.57;;
35803;SDS011;21924;51.934;7.414;2023-04-01T16:36:49;6.78;;;5.63;;
35803;SDS011;21924;51.934;7.414;2023-04-01T16:39:46;7.93;;;4.75;;
35803;SDS011;21924;51.934;7.414;2023-04-01T16:45:41;17.60;;;8.88;;
35803;SDS011;21924;51.934;7.414;2023-04-01T16:48:56;67.07;;;25.05;;
35803;SDS011;21924;51.934;7.414;2023-04-01T16:51:53;74.00;;;24.95;;
35803;SDS011;21924;51.934;7.414;2023-04-01T16:57:59;41.47;;;15.45;;
35803;SDS011;21924;51.934;7.414;2023-04-01T17:00:48;61.00;;;18.95;;
35803;SDS011;21924;51.934;7.414;2023-04-01T17:03:37;76.43;;;25.77;;
35803;SDS011;21924;51.934;7.414;2023-04-01T17:06:28;36.53;;;12.20;;
35803;SDS011;21924;51.934;7.414;2023-04-01T17:15:42;42.75;;;13.18;;
35803;SDS011;21924;51.934;7.414;2023-04-01T17:27:48;4.25;;;2.72;;
35803;SDS011;21924;51.934;7.414;2023-04-01T17:30:37;3.03;;;2.67;;
35803;SDS011;21924;51.934;7.414;2023-04-01T17:46:05;3.28;;;2.97;;
35803;SDS011;21924;51.934;7.414;2023-04-01T17:49:19;3.67;;;3.13;;
35803;SDS011;21924;51.934;7.414;2023-04-01T17:52:22;4.78;;;4.03;;
35803;SDS011;21924;51.934;7.414;2023-04-01T17:58:28;4.70;;;3.40;;
35803;SDS011;21924;51.934;7.414;2023-04-01T18:01:17;5.20;;;3.45;;
35803;SDS011;21924;51.934;7.414;2023-04-01T18:04:11;4.72;;;3.42;;
35803;SDS011;21924;51.934;7.414;2023-04-01T18:09:57;3.90;;;3.28;;
35803;SDS011;21924;51.934;7.414;2023-04-01T18:16:21;5.10;;;3.78;;
35803;SDS011;21924;51.934;7.414;2023-04-01T18:22:23;5.55;;;4.30;;
35803;SDS011;21924;51.934;7.414;2023-04-01T18:25:32;5.05;;;4.07;;
35803;SDS011;21924;51.934;7.414;2023-04-01T18:31:15;4.93;;;3.70;;
35803;SDS011;21924;51.934;7.414;2023-04-01T18:40:28;3.92;;;3.47;;
35803;SDS011;21924;51.934;7.414;2023-04-01T18:43:30;3.20;;;2.90;;
35803;SDS011;21924;51.934;7.414;2023-04-01T18:46:41;3.88;;;3.03;;
35803;SDS011;21924;51.934;7.414;2023-04-01T18:56:32;3.80;;;3.08;;
35803;SDS011;21924;51.934;7.414;2023-04-01T18:59:32;3.47;;;3.17;;
35803;SDS011;21924;51.934;7.414;2023-04-01T19:02:31;3.75;;;3.28;;
35803;SDS011;21924;51.934;7.414;2023-04-01T19:05:31;3.30;;;2.72;;
35803;SDS011;21924;51.934;7.414;2023-04-01T19:20:38;3.97;;;2.60;;
35803;SDS011;21924;51.934;7.414;2023-04-01T19:27:14;4.57;;;3.33;;
35803;SDS011;21924;51.934;7.414;2023-04-01T19:30:07;3.70;;;3.40;;
35803;SDS011;21924;51.934;7.414;2023-04-01T19:33:15;4.72;;;3.90;;
35803;SDS011;21924;51.934;7.414;2023-04-01T19:36:27;3.80;;;3.47;;
35803;SDS011;21924;51.934;7.414;2023-04-01T19:42:25;6.43;;;3.38;;
35803;SDS011;21924;51.934;7.414;2023-04-01T19:45:44;4.22;;;3.78;;
35803;SDS011;21924;51.934;7.414;2023-04-01T20:00:47;5.35;;;3.97;;
35803;SDS011;21924;51.934;7.414;2023-04-01T20:03:38;5.25;;;3.83;;
35803;SDS011;21924;51.934;7.414;2023-04-01T20:06:32;6.30;;;3.58;;
35803;SDS011;21924;51.934;7.414;2023-04-01T20:15:21;4.68;;;4.20;;
35803;SDS011;21924;51.934;7.414;2023-04-01T20:18:18;6.88;;;3.88;;
35803;SDS011;21924;51.934;7.414;2023-04-01T20:21:18;6.70;;;4.93;;
35803;SDS011;21924;51.934;7.414;2023-04-01T20:24:22;4.82;;;4.32;;
35803;SDS011;21924;51.934;7.414;2023-04-01T20:27:20;27.38;;;8.23;;
35803;SDS011;21924;51.934;7.414;2023-04-01T20:36:23;43.17;;;19.88;;
35803;SDS011;21924;51.934;7.414;2023-04-01T20:42:29;6.95;;;5.80;;
35803;SDS011;21924;51.934;7.414;2023-04-01T20:51:06;11.40;;;7.80;;
35803;SDS011;21924;51.934;7.414;2023-04-01T20:54:18;5.72;;;5.05;;
35803;SDS011;21924;51.934;7.414;2023-04-01T20:57:42;9.00;;;7.40;;
35803;SDS011;21924;51.934;7.414;2023-04-01T21:10:26;6.18;;;4.68;;
35803;SDS011;21924;51.934;7.414;2023-04-01T21:19:15;19.42;;;7.45;;
35803;SDS011;21924;51.934;7.414;2023-04-01T21:28:25;71.15;;;20.40;;
35803;SDS011;21924;51.934;7.414;2023-04-01T21:34:27;56.15;;;17.45;;
35803;SDS011;21924;51.934;7.414;2023-04-01T21:43:34;43.35;;;14.45;;
35803;SDS011;21924;51.934;7.414;2023-04-01T21:46:49;30.23;;;10.43;;
35803;SDS011;21924;51.934;7.414;2023-04-01T21:53:05;60.55;;;22.58;;
35803;SDS011;21924;51.934;7.414;2023-04-01T22:02:42;71.57;;;27.48;;
35803;SDS011;21924;51.934;7.414;2023-04-01T22:05:37;56.80;;;23.15;;
35803;SDS011;21924;51.934;7.414;2023-04-01T22:11:51;34.90;;;15.85;;
35803;SDS011;21924;51.934;7.414;2023-04-01T22:14:55;21.35;;;11.77;;
35803;SDS011;21924;51.934;7.414;2023-04-01T22:18:09;12.45;;;8.35;;
35803;SDS011;21924;51.934;7.414;2023-04-01T22:26:50;6.03;;;4.97;;
35803;SDS011;21924;51.934;7.414;2023-04-01T22:32:58;9.60;;;7.25;;
35803;SDS011;21924;51.934;7.414;2023-04-01T22:36:08;10.75;;;7.22;;
35803;SDS011;21924;51.934;7.414;2023-04-01T22:41:54;6.38;;;5.00;;
35803;SDS011;21924;51.934;7.414;2023-04-01T22:47:53;4.07;;;3.67;;
35803;SDS011;21924;51.934;7.414;2023-04-01T22:50:46;4.72;;;4.10;;
35803;SDS011;21924;51.934;7.414;2023-04-01T23:02:39;4.35;;;3.80;;
35803;SDS011;21924;51.934;7.414;2023-04-01T23:05:50;7.25;;;3.90;;
35803;SDS011;21924;51.934;7.414;2023-04-01T23:08:54;5.88;;;4.45;;
35803;SDS011;21924;51.934;7.414;2023-04-01T23:11:43;4.68;;;3.90;;
35803;SDS011;21924;51.934;7.414;2023-04-01T23:14:33;4.55;;;3.80;;
35803;SDS011;21924;51.934;7.414;2023-04-01T23:17:44;4.40;;;3.97;;
35803;SDS011;21924;51.934;7.414;2023-04-01T23:20:44;5.40;;;4.25;;
35803;SDS011;21924;51.934;7.414;2023-04-01T23:23:50;5.22;;;3.95;;
35803;SDS011;21924;51.934;7.414;2023-04-01T23:27:08;4.95;;;3.95;;
35803;SDS011;21924;51.934;7.414;2023-04-01T23:30:46;5.38;;;4.05;;
35803;SDS011;21924;51.934;7.414;2023-04-01T23:33:23;7.78;;;4.32;;
35803;SDS011;21924;51.934;7.414;2023-04-01T23:36:13;4.22;;;3.47;;
35803;SDS011;21924;51.934;7.414;2023-04-01T23:39:00;6.68;;;4.13;;
35803;SDS011;21924;51.934;7.414;2023-04-01T23:42:05;4.30;;;3.63;;
35803;SDS011;21924;51.934;7.414;2023-04-01T23:44:57;5.13;;;4.45;;
35803;SDS011;21924;51.934;7.414;2023-04-01T23:47:43;5.72;;;4.38;;
35803;SDS011;21924;51.934;7.414;2023-04-01T23:50:30;10.07;;;4.63;;
35803;SDS011;21924;51.934;7.414;2023-04-01T23:53:21;4.65;;;4.15;;
35803;SDS011;21924;51.934;7.414;2023-04-01T23:56:16;5.20;;;4.38;;
35803;SDS011;21924;51.934;7.414;2023-04-01T23:59:01;5.63;;;4.70;;
